createdAt,value
2019-04-11T00:02:17.955Z,8.00
2019-04-11T00:04:44.792Z,8.00
2019-04-11T00:07:12.050Z,7.90
2019-04-11T00:09:39.021Z,7.80
2019-04-11T00:12:06.419Z,7.90
2019-04-11T00:14:33.179Z,7.90
2019-04-11T00:17:00.034Z,7.80
2019-04-11T00:19:27.369Z,7.80
2019-04-11T00:21:55.227Z,7.80
2019-04-11T00:24:22.906Z,7.90
2019-04-11T00:26:50.718Z,7.90
2019-04-11T00:29:18.475Z,7.90
2019-04-11T00:31:46.841Z,7.90
2019-04-11T00:34:15.071Z,8.00
2019-04-11T00:36:41.944Z,8.00
2019-04-11T00:39:11.094Z,8.00
2019-04-11T00:41:38.029Z,8.00
2019-04-11T00:44:04.878Z,8.00
2019-04-11T00:46:32.055Z,8.00
2019-04-11T00:48:59.819Z,8.00
2019-04-11T00:51:27.688Z,8.00
2019-04-11T00:53:54.653Z,7.90
2019-04-11T00:56:21.665Z,7.80
2019-04-11T00:58:48.513Z,7.70
2019-04-11T01:01:15.641Z,7.70
2019-04-11T01:03:43.243Z,7.80
2019-04-11T01:06:10.264Z,7.80
2019-04-11T01:08:37.793Z,7.80
2019-04-11T01:11:05.794Z,7.80
2019-04-11T01:13:41.464Z,7.80
2019-04-11T01:16:15.373Z,7.80
2019-04-11T01:18:42.403Z,7.80
2019-04-11T01:21:10.281Z,7.70
2019-04-11T01:23:37.370Z,7.70
2019-04-11T01:26:05.221Z,7.70
2019-04-11T01:28:32.233Z,7.80
2019-04-11T01:31:01.058Z,7.70
2019-04-11T01:33:28.031Z,7.70
2019-04-11T01:35:55.384Z,7.60
2019-04-11T01:38:23.748Z,7.70
2019-04-11T01:40:50.987Z,7.50
2019-04-11T01:43:17.769Z,7.60
2019-04-11T01:45:45.568Z,7.60
2019-04-11T01:48:21.570Z,7.50
2019-04-11T01:50:50.252Z,7.60
2019-04-11T01:53:17.538Z,7.70
2019-04-11T01:55:45.004Z,7.70
2019-04-11T01:58:11.970Z,7.50
2019-04-11T02:00:40.608Z,7.50
2019-04-11T02:03:09.269Z,7.30
2019-04-11T02:05:36.967Z,7.30
2019-04-11T02:08:03.990Z,7.20
2019-04-11T02:10:30.812Z,7.20
2019-04-11T02:12:57.678Z,7.00
2019-04-11T02:15:25.748Z,7.10
2019-04-11T02:17:52.534Z,7.10
2019-04-11T02:20:19.391Z,7.10
2019-04-11T02:22:54.866Z,7.00
2019-04-11T02:25:26.773Z,6.90
2019-04-11T02:27:53.666Z,6.70
2019-04-11T02:30:22.688Z,6.60
2019-04-11T02:32:49.815Z,6.50
2019-04-11T02:35:19.797Z,6.50
2019-04-11T02:37:48.261Z,6.60
2019-04-11T02:40:15.426Z,6.50
2019-04-11T02:42:43.297Z,6.50
2019-04-11T02:45:26.338Z,6.60
2019-04-11T02:47:42.015Z,6.50
2019-04-11T02:50:08.792Z,6.50
2019-04-11T02:52:37.752Z,6.60
2019-04-11T02:55:07.816Z,6.40
2019-04-11T02:57:36.164Z,6.40
2019-04-11T03:00:06.498Z,6.40
2019-04-11T03:02:34.717Z,6.30
2019-04-11T03:05:02.786Z,6.30
2019-04-11T03:07:31.873Z,6.30
2019-04-11T03:10:00.252Z,6.20
2019-04-11T03:12:29.260Z,6.20
2019-04-11T03:15:22.999Z,6.20
2019-04-11T03:17:31.253Z,6.10
2019-04-11T03:20:08.271Z,6.20
2019-04-11T03:22:24.772Z,6.20
2019-04-11T03:24:53.417Z,6.20
2019-04-11T03:27:22.232Z,6.20
2019-04-11T03:29:49.511Z,6.20
2019-04-11T03:33:14.830Z,6.20
2019-04-11T03:35:38.515Z,6.10
2019-04-11T03:37:37.688Z,6.20
2019-04-11T03:40:06.081Z,6.10
2019-04-11T03:42:28.502Z,6.10
2019-04-11T03:44:47.220Z,6.10
2019-04-11T03:47:23.793Z,6.00
2019-04-11T03:49:49.188Z,5.90
2019-04-11T03:52:10.581Z,5.90
2019-04-11T03:54:38.930Z,5.80
2019-04-11T03:57:07.679Z,5.80
2019-04-11T03:59:36.619Z,5.80
2019-04-11T04:02:05.566Z,5.80
2019-04-11T04:04:32.724Z,5.80
2019-04-11T04:06:59.938Z,5.60
2019-04-11T04:09:29.112Z,5.70
2019-04-11T04:11:56.923Z,5.70
2019-04-11T04:14:26.549Z,5.60
2019-04-11T04:17:01.613Z,5.70
2019-04-11T04:19:35.342Z,5.70
2019-04-11T04:22:13.619Z,5.80
2019-04-11T04:24:42.734Z,5.80
2019-04-11T04:27:10.259Z,5.90
2019-04-11T04:29:38.085Z,5.90
2019-04-11T04:32:05.977Z,5.90
2019-04-11T04:34:36.143Z,5.80
2019-04-11T04:37:04.212Z,5.70
2019-04-11T04:39:34.314Z,5.80
2019-04-11T04:42:09.259Z,5.80
2019-04-11T04:44:31.574Z,5.80
2019-04-11T04:47:12.992Z,5.80
2019-04-11T04:49:28.210Z,5.90
2019-04-11T04:51:56.074Z,5.90
2019-04-11T04:54:24.060Z,6.00
2019-04-11T04:56:52.457Z,5.90
2019-04-11T04:59:19.661Z,5.80
2019-04-11T05:01:48.358Z,5.70
2019-04-11T05:04:15.769Z,5.60
2019-04-11T05:06:46.737Z,5.60
2019-04-11T05:09:12.654Z,5.60
2019-04-11T05:11:39.624Z,5.60
2019-04-11T05:14:07.197Z,5.60
2019-04-11T05:16:35.602Z,5.50
2019-04-11T05:19:02.710Z,5.40
2019-04-11T05:21:29.695Z,5.60
2019-04-11T05:23:56.747Z,5.60
2019-04-11T05:26:23.663Z,5.50
2019-04-11T05:28:51.004Z,5.50
2019-04-11T05:31:18.502Z,5.60
2019-04-11T05:33:45.640Z,5.60
2019-04-11T05:36:12.611Z,5.60
2019-04-11T05:38:39.436Z,5.60
2019-04-11T05:41:09.637Z,5.60
2019-04-11T05:43:37.264Z,5.60
2019-04-11T05:46:10.158Z,5.60
2019-04-11T05:48:55.124Z,5.60
2019-04-11T05:51:23.526Z,5.60
2019-04-11T05:53:52.909Z,5.70
2019-04-11T05:56:21.773Z,5.80
2019-04-11T05:58:49.394Z,5.70
2019-04-11T06:01:20.868Z,5.70
2019-04-11T06:03:52.554Z,5.60
2019-04-11T06:06:31.974Z,5.50
2019-04-11T06:09:00.618Z,5.50
2019-04-11T06:11:31.271Z,5.40
2019-04-11T06:14:09.277Z,5.50
2019-04-11T06:16:44.901Z,5.60
2019-04-11T06:19:08.082Z,5.60
2019-04-11T06:21:36.914Z,5.70
2019-04-11T06:24:24.119Z,5.80
2019-04-11T06:26:56.676Z,5.80
2019-04-11T06:29:43.739Z,5.90
2019-04-11T06:32:29.919Z,5.90
2019-04-11T06:35:13.777Z,5.70
2019-04-11T06:37:43.528Z,5.50
2019-04-11T06:40:21.481Z,5.60
2019-04-11T06:43:09.694Z,5.60
2019-04-11T06:45:58.348Z,5.70
2019-04-11T06:48:30.080Z,5.70
2019-04-11T06:51:01.844Z,5.60
2019-04-11T06:53:30.625Z,5.60
2019-04-11T06:56:00.266Z,5.60
2019-04-11T06:58:29.806Z,5.70
2019-04-11T07:00:58.489Z,5.80
2019-04-11T07:03:29.227Z,5.70
2019-04-11T07:05:57.265Z,5.60
2019-04-11T07:08:26.473Z,5.60
2019-04-11T07:10:55.342Z,5.70
2019-04-11T07:13:26.792Z,5.70
2019-04-11T07:15:54.745Z,5.80
2019-04-11T07:18:35.768Z,5.70
2019-04-11T07:21:04.498Z,5.70
2019-04-11T07:23:49.596Z,5.80
2019-04-11T07:26:23.015Z,5.80
2019-04-11T07:28:54.521Z,5.80
2019-04-11T07:31:23.349Z,5.70
2019-04-11T07:34:08.766Z,5.80
2019-04-11T07:36:54.128Z,5.90
2019-04-11T07:39:25.704Z,5.80
2019-04-11T07:41:55.897Z,5.80
2019-04-11T07:44:34.083Z,5.80
2019-04-11T07:47:23.214Z,5.80
2019-04-11T07:49:54.954Z,5.80
2019-04-11T07:52:22.884Z,5.80
2019-04-11T07:54:49.721Z,5.80
2019-04-11T07:57:30.708Z,5.80
2019-04-11T08:00:08.337Z,5.90
2019-04-11T08:02:48.972Z,6.00
2019-04-11T08:05:22.200Z,6.10
2019-04-11T08:08:09.135Z,6.10
2019-04-11T08:10:38.473Z,6.20
2019-04-11T08:13:24.084Z,6.10
2019-04-11T08:16:02.188Z,6.10
2019-04-11T08:18:34.917Z,6.10
2019-04-11T08:21:20.329Z,6.20
2019-04-11T08:23:48.986Z,6.30
2019-04-11T08:26:26.483Z,6.30
2019-04-11T08:29:05.258Z,6.50
2019-04-11T08:31:41.754Z,6.50
2019-04-11T08:34:08.672Z,6.50
2019-04-11T08:36:44.199Z,6.70
2019-04-11T08:39:14.279Z,6.70
2019-04-11T08:42:01.233Z,6.70
2019-04-11T08:44:28.486Z,6.80
2019-04-11T08:46:56.064Z,6.90
2019-04-11T08:49:30.160Z,6.90
2019-04-11T08:52:07.591Z,7.10
2019-04-11T08:54:39.725Z,7.10
2019-04-11T08:57:07.521Z,7.50
2019-04-11T08:59:39.794Z,7.80
2019-04-11T09:02:07.054Z,8.20
2019-04-11T09:04:44.272Z,8.40
2019-04-11T09:07:13.509Z,8.70
2019-04-11T09:09:57.738Z,8.80
2019-04-11T09:12:24.669Z,8.80
2019-04-11T09:15:02.663Z,8.90
2019-04-11T09:17:34.533Z,8.90
2019-04-11T09:20:19.836Z,9.30
2019-04-11T09:22:49.037Z,9.50
2019-04-11T09:25:35.003Z,9.70
2019-04-11T09:28:04.876Z,9.90
2019-04-11T09:30:50.933Z,9.90
2019-04-11T09:33:20.681Z,9.70
2019-04-11T09:35:49.468Z,9.90
2019-04-11T09:38:20.908Z,10.10
2019-04-11T09:41:06.164Z,10.30
2019-04-11T09:43:35.649Z,10.50
2019-04-11T09:46:22.066Z,10.50
2019-04-11T09:48:56.234Z,10.20
2019-04-11T09:51:26.467Z,10.30
2019-04-11T09:54:13.429Z,10.20
2019-04-11T09:57:02.177Z,10.20
2019-04-11T09:59:31.455Z,10.10
2019-04-11T10:02:00.348Z,10.20
2019-04-11T10:04:29.764Z,10.10
2019-04-11T10:07:15.571Z,9.40
2019-04-11T10:09:54.170Z,9.50
2019-04-11T10:12:38.640Z,9.80
2019-04-11T10:15:09.377Z,10.00
2019-04-11T10:17:42.346Z,9.90
2019-04-11T10:20:16.106Z,10.10
2019-04-11T10:22:45.985Z,10.20
2019-04-11T10:25:25.213Z,10.00
2019-04-11T10:28:13.265Z,9.80
2019-04-11T10:30:58.955Z,9.90
2019-04-11T10:33:30.964Z,9.90
2019-04-11T10:36:05.516Z,9.70
2019-04-11T10:38:33.056Z,9.70
2019-04-11T10:41:20.893Z,10.00
2019-04-11T10:43:47.707Z,10.00
2019-04-11T10:46:22.985Z,10.00
2019-04-11T10:48:54.976Z,9.90
2019-04-11T10:51:40.829Z,10.10
2019-04-11T10:54:08.620Z,10.10
2019-04-11T10:56:47.458Z,10.20
2019-04-11T10:59:15.425Z,10.30
2019-04-11T11:01:44.386Z,10.20
2019-04-11T11:04:15.860Z,10.10
2019-04-11T11:06:45.095Z,9.70
2019-04-11T11:09:21.810Z,9.50
2019-04-11T11:11:50.602Z,9.60
2019-04-11T11:14:36.543Z,9.60
2019-04-11T11:17:38.989Z,9.70
2019-04-11T11:19:59.415Z,9.50
2019-04-11T11:22:18.861Z,9.70
2019-04-11T11:25:04.777Z,9.70
2019-04-11T11:27:34.575Z,9.80
2019-04-11T11:30:10.690Z,10.10
2019-04-11T11:32:37.844Z,10.20
2019-04-11T11:35:07.461Z,10.20
2019-04-11T11:37:37.361Z,10.30
2019-04-11T11:40:12.037Z,10.50
2019-04-11T11:42:54.616Z,10.50
2019-04-11T11:45:33.248Z,10.40
2019-04-11T11:48:02.416Z,10.20
2019-04-11T11:50:33.026Z,10.00
2019-04-11T11:53:08.246Z,9.90
2019-04-11T11:55:37.698Z,9.80
2019-04-11T11:58:06.907Z,9.90
2019-04-11T12:00:33.740Z,9.80
2019-04-11T12:03:08.678Z,9.80
2019-04-11T12:05:37.364Z,9.90
2019-04-11T12:08:16.554Z,10.00
2019-04-11T12:10:49.217Z,10.20
2019-04-11T12:13:33.068Z,10.50
2019-04-11T12:16:01.692Z,10.60
2019-04-11T12:18:50.299Z,10.70
2019-04-11T12:21:32.459Z,10.90
2019-04-11T12:24:06.532Z,10.80
2019-04-11T12:26:35.778Z,10.70
2019-04-11T12:29:21.857Z,10.50
2019-04-11T12:31:57.666Z,10.40
2019-04-11T12:34:38.738Z,10.40
2019-04-11T12:37:08.485Z,10.50
2019-04-11T12:39:55.272Z,10.40
2019-04-11T12:42:23.912Z,10.50
2019-04-11T12:44:59.746Z,10.50
2019-04-11T12:47:28.108Z,10.50
2019-04-11T12:49:56.704Z,10.50
2019-04-11T12:52:40.193Z,10.60
2019-04-11T12:55:14.721Z,10.80
2019-04-11T12:58:00.089Z,10.70
2019-04-11T13:00:28.685Z,10.80
2019-04-11T13:03:00.352Z,11.00
2019-04-11T13:05:29.237Z,11.10
2019-04-11T13:08:14.681Z,11.40
2019-04-11T13:10:43.161Z,11.50
2019-04-11T13:13:28.677Z,11.60
2019-04-11T13:15:57.274Z,11.70
2019-04-11T13:18:28.493Z,11.60
2019-04-11T13:20:59.856Z,11.20
2019-04-11T13:23:34.032Z,11.30
2019-04-11T13:26:19.206Z,11.50
2019-04-11T13:28:54.087Z,11.50
2019-04-11T13:31:39.463Z,11.60
2019-04-11T13:34:08.144Z,11.60
2019-04-11T13:36:42.880Z,11.80
2019-04-11T13:39:10.060Z,11.90
2019-04-11T13:41:55.324Z,12.10
2019-04-11T13:44:22.108Z,12.00
2019-04-11T13:47:07.309Z,11.90
2019-04-11T13:49:35.901Z,11.80
2019-04-11T13:52:22.904Z,11.60
2019-04-11T13:54:54.473Z,11.50
2019-04-11T13:57:23.132Z,11.60
2019-04-11T13:59:51.735Z,11.50
2019-04-11T14:02:20.396Z,11.20
2019-04-11T14:04:54.297Z,11.00
2019-04-11T14:07:21.279Z,10.80
2019-04-11T14:09:51.374Z,10.80
2019-04-11T14:12:18.208Z,10.90
2019-04-11T14:14:45.452Z,10.40
2019-04-11T14:17:17.096Z,10.50
2019-04-11T14:19:48.261Z,10.60
2019-04-11T14:22:16.888Z,10.50
2019-04-11T14:24:57.664Z,10.80
2019-04-11T14:27:26.260Z,10.70
2019-04-11T14:30:04.197Z,10.90
2019-04-11T14:32:32.825Z,11.10
2019-04-11T14:35:01.466Z,11.10
2019-04-11T14:37:38.432Z,11.20
2019-04-11T14:40:27.024Z,11.00
2019-04-11T14:42:58.372Z,11.00
2019-04-11T14:45:45.192Z,10.90
2019-04-11T14:48:20.285Z,10.70
2019-04-11T14:51:01.100Z,10.50
2019-04-11T14:53:29.740Z,10.60
2019-04-11T14:55:58.384Z,10.70
2019-04-11T14:58:41.876Z,10.80
2019-04-11T15:01:10.504Z,10.80
2019-04-11T15:03:55.552Z,10.80
2019-04-11T15:06:24.201Z,10.70
2019-04-11T15:08:52.843Z,10.70
2019-04-11T15:11:23.976Z,10.80
2019-04-11T15:13:52.612Z,10.80
2019-04-11T15:16:36.406Z,10.80
2019-04-11T15:19:03.236Z,10.70
2019-04-11T15:21:31.872Z,10.60
2019-04-11T15:23:58.664Z,10.50
2019-04-11T15:26:39.504Z,10.50
2019-04-11T15:29:08.126Z,10.40
2019-04-11T15:31:39.863Z,10.50
2019-04-11T15:34:08.652Z,10.40
2019-04-11T15:36:39.781Z,10.30
2019-04-11T15:39:19.902Z,10.20
2019-04-11T15:41:48.512Z,10.10
2019-04-11T15:44:28.993Z,10.10
2019-04-11T15:46:57.632Z,10.00
2019-04-11T15:49:46.464Z,10.00
2019-04-11T15:52:14.293Z,9.90
2019-04-11T15:54:45.676Z,9.90
2019-04-11T15:57:14.317Z,9.80
2019-04-11T15:59:48.769Z,9.70
2019-04-11T16:02:17.405Z,9.70
2019-04-11T16:04:45.990Z,9.70
2019-04-11T16:07:14.632Z,9.70
2019-04-11T16:09:49.045Z,9.70
2019-04-11T16:12:34.363Z,9.60
2019-04-11T16:15:17.953Z,9.70
2019-04-11T16:18:03.385Z,9.70
2019-04-11T16:20:30.170Z,9.60
2019-04-11T16:23:04.828Z,9.70
2019-04-11T16:25:31.679Z,9.70
2019-04-11T16:28:09.224Z,9.70
2019-04-11T16:30:39.825Z,9.70
2019-04-11T16:33:08.333Z,9.70
2019-04-11T16:35:37.117Z,9.70
2019-04-11T16:38:05.778Z,9.70
2019-04-11T16:40:53.479Z,9.70
2019-04-11T16:43:24.075Z,9.70
2019-04-11T16:46:06.760Z,9.70
2019-04-11T16:48:33.545Z,9.70
2019-04-11T16:51:00.374Z,9.60
2019-04-11T16:53:27.157Z,9.50
2019-04-11T16:55:54.044Z,9.40
2019-04-11T16:58:20.870Z,9.20
2019-04-11T17:00:52.136Z,9.20
2019-04-11T17:03:17.398Z,9.20
2019-04-11T17:05:46.100Z,9.30
2019-04-11T17:08:17.500Z,9.30
2019-04-11T17:11:00.924Z,9.30
2019-04-11T17:13:28.217Z,9.30
2019-04-11T17:15:55.060Z,9.20
2019-04-11T17:18:21.895Z,9.20
2019-04-11T17:20:48.730Z,9.10
2019-04-11T17:23:17.196Z,9.10
2019-04-11T17:25:44.157Z,9.00
2019-04-11T17:28:10.931Z,9.00
2019-04-11T17:30:37.761Z,9.00
2019-04-11T17:33:04.596Z,9.10
2019-04-11T17:35:31.842Z,9.00
2019-04-11T17:38:01.087Z,9.10
2019-04-11T17:40:27.668Z,9.10
2019-04-11T17:42:54.517Z,9.10
2019-04-11T17:45:21.361Z,8.90
2019-04-11T17:47:48.148Z,8.90
2019-04-11T17:50:15.003Z,8.80
2019-04-11T17:52:41.785Z,8.80
2019-04-11T17:55:08.733Z,8.80
2019-04-11T17:57:35.532Z,8.90
2019-04-11T18:00:06.513Z,8.80
2019-04-11T18:02:33.341Z,8.70
2019-04-11T18:05:00.182Z,8.60
2019-04-11T18:07:27.021Z,8.60
2019-04-11T18:09:55.789Z,8.50
2019-04-11T18:12:23.817Z,8.50
2019-04-11T18:14:51.157Z,8.40
2019-04-11T18:17:17.961Z,8.40
2019-04-11T18:19:45.797Z,8.30
2019-04-11T18:22:13.632Z,8.30
2019-04-11T18:24:41.230Z,8.20
2019-04-11T18:27:08.027Z,8.20
2019-04-11T18:29:34.861Z,8.20
2019-04-11T18:32:01.700Z,8.10
2019-04-11T18:34:31.562Z,8.10
2019-04-11T18:36:57.319Z,8.10
2019-04-11T18:39:24.142Z,8.10
2019-04-11T18:41:50.989Z,8.10
2019-04-11T18:44:18.306Z,8.10
2019-04-11T18:46:45.761Z,8.10
2019-04-11T18:49:12.601Z,8.10
2019-04-11T18:51:39.392Z,8.00
2019-04-11T18:54:07.788Z,8.00
2019-04-11T18:56:34.885Z,8.00
2019-04-11T18:59:03.691Z,8.00
2019-04-11T19:01:30.377Z,7.90
2019-04-11T19:03:59.076Z,7.80
2019-04-11T19:06:27.955Z,7.80
2019-04-11T19:08:54.500Z,7.80
2019-04-11T19:11:21.347Z,7.80
2019-04-11T19:13:48.190Z,7.80
2019-04-11T19:16:16.104Z,7.70
2019-04-11T19:18:47.233Z,7.70
2019-04-11T19:21:12.224Z,7.60
2019-04-11T19:23:39.195Z,7.60
2019-04-11T19:26:06.564Z,7.60
2019-04-11T19:28:33.352Z,7.60
2019-04-11T19:31:00.200Z,7.60
2019-04-11T19:33:27.061Z,7.60
2019-04-11T19:35:53.900Z,7.60
2019-04-11T19:38:26.162Z,7.60
2019-04-11T19:40:55.441Z,7.70
2019-04-11T19:43:21.603Z,7.60
2019-04-11T19:45:50.019Z,7.60
2019-04-11T19:48:17.187Z,7.60
2019-04-11T19:50:44.032Z,7.50
2019-04-11T19:53:10.833Z,7.60
2019-04-11T19:55:46.541Z,7.50
2019-04-11T19:58:13.335Z,7.50
2019-04-11T20:00:40.184Z,7.50
2019-04-11T20:03:08.472Z,7.50
2019-04-11T20:05:35.421Z,7.50
2019-04-11T20:08:02.272Z,7.40
2019-04-11T20:10:30.878Z,7.50
2019-04-11T20:12:59.090Z,7.50
2019-04-11T20:15:36.673Z,7.50
2019-04-11T20:17:57.036Z,7.50
2019-04-11T20:20:23.893Z,7.50
2019-04-11T20:22:58.745Z,7.40
2019-04-11T20:25:19.396Z,7.40
2019-04-11T20:27:48.127Z,7.50
2019-04-11T20:30:14.890Z,7.50
2019-04-11T20:32:41.746Z,7.40
2019-04-11T20:35:10.168Z,7.40
2019-04-11T20:37:39.509Z,7.40
2019-04-11T20:40:05.856Z,7.30
2019-04-11T20:42:32.657Z,7.40
2019-04-11T20:44:59.498Z,7.30
2019-04-11T20:47:26.277Z,7.30
2019-04-11T20:49:53.117Z,7.20
2019-04-11T20:52:19.990Z,7.30
2019-04-11T20:54:46.865Z,7.30
2019-04-11T20:57:24.963Z,7.30
2019-04-11T20:59:42.625Z,7.20
2019-04-11T21:02:09.753Z,7.20
2019-04-11T21:04:36.570Z,7.20
2019-04-11T21:07:03.467Z,7.20
2019-04-11T21:09:33.035Z,7.20
2019-04-11T21:11:58.915Z,7.20
2019-04-11T21:14:25.799Z,7.20
2019-04-11T21:16:52.580Z,7.20
2019-04-11T21:19:19.430Z,7.20
2019-04-11T21:21:46.246Z,7.30
2019-04-11T21:24:13.106Z,7.30
2019-04-11T21:26:40.060Z,7.30
2019-04-11T21:29:06.865Z,7.30
2019-04-11T21:31:33.729Z,7.30
2019-04-11T21:34:02.288Z,7.20
2019-04-11T21:36:31.514Z,7.20
2019-04-11T21:38:57.831Z,7.10
2019-04-11T21:41:24.705Z,7.10
2019-04-11T21:43:51.506Z,7.10
2019-04-11T21:46:18.455Z,7.00
2019-04-11T21:48:45.287Z,6.90
2019-04-11T21:51:12.082Z,6.90
2019-04-11T21:53:38.928Z,6.80
2019-04-11T21:56:05.761Z,6.80
2019-04-11T21:58:32.622Z,6.90
2019-04-11T22:01:03.357Z,6.90
2019-04-11T22:03:30.451Z,6.80
2019-04-11T22:05:59.857Z,6.80
2019-04-11T22:08:25.940Z,6.80
2019-04-11T22:10:52.755Z,6.80
2019-04-11T22:13:19.616Z,6.80
2019-04-11T22:15:46.417Z,6.90
2019-04-11T22:18:16.113Z,6.90
2019-04-11T22:20:41.949Z,6.90
2019-04-11T22:23:08.737Z,7.00
2019-04-11T22:25:35.617Z,6.90
2019-04-11T22:28:02.421Z,7.00
2019-04-11T22:30:29.290Z,7.00
2019-04-11T22:33:01.593Z,7.00
2019-04-11T22:35:29.071Z,7.00
2019-04-11T22:37:59.660Z,7.00
2019-04-11T22:40:25.001Z,6.90
2019-04-11T22:42:51.845Z,7.00
2019-04-11T22:45:18.696Z,7.00
2019-04-11T22:47:45.565Z,6.90
2019-04-11T22:50:12.509Z,6.90
2019-04-11T22:52:39.779Z,6.90
2019-04-11T22:55:10.979Z,6.90
2019-04-11T22:57:36.577Z,6.90
2019-04-11T23:00:06.279Z,6.90
2019-04-11T23:02:34.907Z,6.90
2019-04-11T23:05:01.776Z,6.90
2019-04-11T23:07:28.678Z,6.90
2019-04-11T23:09:55.558Z,6.90
2019-04-11T23:12:22.421Z,6.80
2019-04-11T23:14:49.414Z,6.80
2019-04-11T23:17:16.285Z,6.90
2019-04-11T23:19:44.093Z,6.90
2019-04-11T23:22:12.161Z,6.80
2019-04-11T23:24:39.785Z,6.70
2019-04-11T23:27:06.601Z,6.70
2019-04-11T23:29:33.473Z,6.50
2019-04-11T23:32:00.310Z,6.40
2019-04-11T23:34:27.153Z,6.50
2019-04-11T23:36:53.993Z,6.50
2019-04-11T23:39:22.697Z,6.40
2019-04-11T23:41:49.810Z,6.40
2019-04-11T23:44:18.006Z,6.30
2019-04-11T23:46:45.817Z,6.20
2019-04-11T23:49:12.610Z,6.20
2019-04-11T23:51:39.399Z,6.20
2019-04-11T23:54:06.233Z,6.20
2019-04-11T23:56:33.017Z,6.00
2019-04-11T23:59:01.910Z,6.00
